createdAt,value
2018-10-11T00:00:24.012Z,15.23
2018-10-11T00:05:27.231Z,17.00
2018-10-11T00:10:30.453Z,14.93
2018-10-11T00:15:33.676Z,18.37
2018-10-11T00:20:36.901Z,14.33
2018-10-11T00:25:40.102Z,17.60
2018-10-11T00:30:43.361Z,16.27
2018-10-11T00:35:46.561Z,16.60
2018-10-11T00:40:49.804Z,15.40
2018-10-11T00:45:53.065Z,16.60
2018-10-11T00:50:56.296Z,15.03
2018-10-11T00:55:59.509Z,15.67
2018-10-11T01:01:02.729Z,15.80
2018-10-11T01:06:05.949Z,25.30
2018-10-11T01:11:09.592Z,18.20
2018-10-11T01:16:15.796Z,14.90
2018-10-11T01:21:19.053Z,15.60
2018-10-11T01:26:22.288Z,15.33
2018-10-11T01:31:25.834Z,16.40
2018-10-11T01:36:29.082Z,16.60
2018-10-11T01:41:32.365Z,14.10
2018-10-11T01:46:35.628Z,14.57
2018-10-11T01:51:38.901Z,15.27
2018-10-11T01:56:42.191Z,15.27
2018-10-11T02:01:45.392Z,14.20
2018-10-11T02:06:48.646Z,15.77
2018-10-11T02:11:51.933Z,16.53
2018-10-11T02:16:55.284Z,15.80
2018-10-11T02:21:58.587Z,14.33
2018-10-11T02:27:01.849Z,13.77
2018-10-11T02:32:05.131Z,15.10
2018-10-11T02:37:08.769Z,14.57
2018-10-11T02:42:12.014Z,14.93
2018-10-11T02:47:15.374Z,19.07
2018-10-11T02:52:18.634Z,17.30
2018-10-11T02:57:33.254Z,14.90
2018-10-11T03:02:37.708Z,14.07
2018-10-11T03:07:40.969Z,15.93
2018-10-11T03:12:44.332Z,20.03
2018-10-11T03:17:47.590Z,13.10
2018-10-11T03:22:50.833Z,18.30
2018-10-11T03:27:54.086Z,14.53
2018-10-11T03:32:57.336Z,16.90
2018-10-11T03:38:00.576Z,13.93
2018-10-11T03:43:03.838Z,16.73
2018-10-11T03:48:07.110Z,16.00
2018-10-11T03:53:10.356Z,17.43
2018-10-11T03:58:13.597Z,13.43
2018-10-11T04:03:16.858Z,14.97
2018-10-11T04:08:20.100Z,16.40
2018-10-11T04:13:23.340Z,15.63
2018-10-11T04:18:26.585Z,19.27
2018-10-11T04:23:30.720Z,18.20
2018-10-11T04:28:33.968Z,21.10
2018-10-11T04:33:37.213Z,17.10
2018-10-11T04:38:40.444Z,16.07
2018-10-11T04:43:43.778Z,15.00
2018-10-11T04:48:47.005Z,17.60
2018-10-11T04:53:55.708Z,18.43
2018-10-11T04:58:58.967Z,19.73
2018-10-11T05:04:02.224Z,19.30
2018-10-11T05:09:05.728Z,16.20
2018-10-11T05:14:09.105Z,14.23
2018-10-11T05:19:12.357Z,19.33
2018-10-11T05:24:15.607Z,17.03
2018-10-11T05:29:18.845Z,18.80
2018-10-11T05:34:22.080Z,16.60
2018-10-11T05:39:25.372Z,19.00
2018-10-11T05:44:28.702Z,18.00
2018-10-11T05:49:31.920Z,16.10
2018-10-11T05:54:35.173Z,17.20
2018-10-11T05:59:38.450Z,17.20
2018-10-11T06:04:41.705Z,15.70
2018-10-11T06:09:44.951Z,17.20
2018-10-11T06:14:48.217Z,17.43
2018-10-11T06:19:51.480Z,17.10
2018-10-11T06:24:54.779Z,15.90
2018-10-11T06:29:58.005Z,17.30
2018-10-11T06:35:01.289Z,15.67
2018-10-11T06:40:04.557Z,14.83
2018-10-11T06:45:09.867Z,15.17
2018-10-11T06:50:13.152Z,15.57
2018-10-11T06:55:16.394Z,17.93
2018-10-11T07:00:19.664Z,19.10
2018-10-11T07:05:22.920Z,16.67
2018-10-11T07:10:26.146Z,16.83
2018-10-11T07:15:29.376Z,16.13
2018-10-11T07:20:32.604Z,17.13
2018-10-11T07:25:35.832Z,16.77
2018-10-11T07:30:39.057Z,16.57
2018-10-11T07:35:42.304Z,14.33
2018-10-11T07:40:45.565Z,20.23
2018-10-11T07:45:48.847Z,21.27
2018-10-11T07:50:52.068Z,17.73
2018-10-11T07:55:55.311Z,16.23
2018-10-11T08:00:58.541Z,23.53
2018-10-11T08:06:01.769Z,15.67
2018-10-11T08:11:05.222Z,18.10
2018-10-11T08:16:08.611Z,18.17
2018-10-11T08:21:11.613Z,16.03
2018-10-11T08:26:15.257Z,17.20
2018-10-11T08:31:18.081Z,14.77
2018-10-11T08:36:21.337Z,17.87
2018-10-11T08:41:24.567Z,19.03
2018-10-11T08:46:27.790Z,18.70
2018-10-11T08:51:31.022Z,17.97
2018-10-11T08:56:34.261Z,19.53
2018-10-11T09:01:37.529Z,19.63
2018-10-11T09:06:40.780Z,19.40
2018-10-11T09:11:44.037Z,27.23
2018-10-11T09:16:47.293Z,29.50
2018-10-11T09:21:50.528Z,18.37
2018-10-11T09:26:53.782Z,21.73
2018-10-11T09:31:57.052Z,19.47
2018-10-11T09:37:00.288Z,17.33
2018-10-11T09:42:03.508Z,19.67
2018-10-11T09:47:07.117Z,20.23
2018-10-11T09:52:10.340Z,17.67
2018-10-11T09:57:19.520Z,18.53
2018-10-11T10:02:23.738Z,23.70
2018-10-11T10:07:26.992Z,19.33
2018-10-11T10:12:30.240Z,17.50
2018-10-11T10:17:33.662Z,20.63
2018-10-11T10:22:36.881Z,15.33
2018-10-11T10:27:40.128Z,16.67
2018-10-11T10:32:43.368Z,17.47
2018-10-11T10:37:46.631Z,20.10
2018-10-11T10:42:49.892Z,16.47
2018-10-11T10:47:53.133Z,14.40
2018-10-11T10:52:56.366Z,16.30
2018-10-11T10:57:59.581Z,15.87
2018-10-11T11:03:02.804Z,12.20
2018-10-11T11:08:06.068Z,13.87
2018-10-11T11:13:09.366Z,15.23
2018-10-11T11:18:12.557Z,14.37
2018-10-11T11:23:15.952Z,15.00
2018-10-11T11:28:19.216Z,12.27
2018-10-11T11:33:22.496Z,26.83
2018-10-11T11:38:25.721Z,14.00
2018-10-11T11:43:28.961Z,13.03
2018-10-11T11:48:32.213Z,14.47
2018-10-11T11:53:35.528Z,11.73
2018-10-11T11:58:39.197Z,11.37
2018-10-11T12:03:42.434Z,12.00
2018-10-11T12:08:45.674Z,11.67
2018-10-11T12:13:48.920Z,12.30
2018-10-11T12:18:52.312Z,9.07
2018-10-11T12:23:55.562Z,11.50
2018-10-11T12:28:58.884Z,11.83
2018-10-11T12:34:02.036Z,12.90
2018-10-11T12:39:07.046Z,9.60
2018-10-11T12:44:10.252Z,9.70
2018-10-11T12:49:13.602Z,11.27
2018-10-11T12:54:16.805Z,11.00
2018-10-11T12:59:20.029Z,12.43
2018-10-11T13:04:23.251Z,10.70
2018-10-11T13:09:26.523Z,9.40
2018-10-11T13:14:29.780Z,9.70
2018-10-11T13:19:33.024Z,8.83
2018-10-11T13:24:39.766Z,9.47
2018-10-11T13:29:39.485Z,10.60
2018-10-11T13:34:42.780Z,8.87
2018-10-11T13:39:52.025Z,10.20
2018-10-11T13:44:49.209Z,11.60
2018-10-11T13:49:52.497Z,13.87
2018-10-11T13:54:55.721Z,12.27
2018-10-11T13:59:58.945Z,8.67
2018-10-11T14:05:02.203Z,9.33
2018-10-11T14:10:06.388Z,7.97
2018-10-11T14:15:09.608Z,9.00
2018-10-11T14:20:12.845Z,12.40
2018-10-11T14:25:16.048Z,7.90
2018-10-11T14:30:19.266Z,8.23
2018-10-11T14:35:22.486Z,9.60
2018-10-11T14:40:25.708Z,12.20
2018-10-11T14:45:28.953Z,9.13
2018-10-11T14:50:32.200Z,9.43
2018-10-11T14:55:35.424Z,8.50
2018-10-11T15:00:38.624Z,7.87
2018-10-11T15:05:41.873Z,8.40
2018-10-11T15:10:45.148Z,7.73
2018-10-11T15:15:48.424Z,7.13
2018-10-11T15:20:51.920Z,8.27
2018-10-11T15:25:55.774Z,8.10
2018-10-11T15:30:59.055Z,10.10
2018-10-11T15:36:02.532Z,12.23
2018-10-11T15:41:05.833Z,10.40
2018-10-11T15:46:09.079Z,9.73
2018-10-11T15:51:12.384Z,8.77
2018-10-11T15:56:16.343Z,8.20
2018-10-11T16:01:19.680Z,7.80
2018-10-11T16:06:22.929Z,9.43
2018-10-11T16:11:26.204Z,9.23
2018-10-11T16:16:29.433Z,10.50
2018-10-11T16:21:32.745Z,11.50
2018-10-11T16:26:35.980Z,8.47
2018-10-11T16:31:39.249Z,10.43
2018-10-11T16:36:42.464Z,8.77
2018-10-11T16:41:45.706Z,9.97
2018-10-11T16:46:48.972Z,14.20
2018-10-11T16:51:52.229Z,11.43
2018-10-11T16:56:55.476Z,10.30
2018-10-11T17:01:58.708Z,8.73
2018-10-11T17:07:01.961Z,9.63
2018-10-11T17:12:05.182Z,9.17
2018-10-11T17:17:08.472Z,8.77
2018-10-11T17:22:11.797Z,11.57
2018-10-11T17:27:14.944Z,10.77
2018-10-11T17:32:18.225Z,8.53
2018-10-11T17:37:21.476Z,8.20
2018-10-11T17:42:24.830Z,9.03
2018-10-11T17:47:28.088Z,8.03
2018-10-11T17:52:31.309Z,8.67
2018-10-11T17:57:34.569Z,10.03
2018-10-11T18:02:37.820Z,10.37
2018-10-11T18:07:41.081Z,12.70
2018-10-11T18:12:44.472Z,10.27
2018-10-11T18:17:47.818Z,10.20
2018-10-11T18:22:51.085Z,11.20
2018-10-11T18:27:54.408Z,10.37
2018-10-11T18:32:57.633Z,9.47
2018-10-11T18:38:00.882Z,11.00
2018-10-11T18:43:04.120Z,10.43
2018-10-11T18:48:07.398Z,15.77
2018-10-11T18:53:10.617Z,10.77
2018-10-11T18:58:13.849Z,14.20
2018-10-11T19:03:17.112Z,10.80
2018-10-11T19:08:20.348Z,11.93
2018-10-11T19:13:23.633Z,11.40
2018-10-11T19:18:26.900Z,14.17
2018-10-11T19:23:30.664Z,11.00
2018-10-11T19:28:33.900Z,11.50
2018-10-11T19:33:37.139Z,14.40
2018-10-11T19:38:40.366Z,10.43
2018-10-11T19:43:43.658Z,9.50
2018-10-11T19:48:46.897Z,11.40
2018-10-11T19:53:50.133Z,12.97
2018-10-11T19:58:53.377Z,10.70
2018-10-11T20:03:56.660Z,12.87
2018-10-11T20:08:59.888Z,13.60
2018-10-11T20:14:03.200Z,13.50
2018-10-11T20:19:06.441Z,10.37
2018-10-11T20:24:09.681Z,11.10
2018-10-11T20:29:12.921Z,11.53
2018-10-11T20:34:16.176Z,10.53
2018-10-11T20:39:19.417Z,14.53
2018-10-11T20:44:22.661Z,14.60
2018-10-11T20:49:25.918Z,10.50
2018-10-11T20:54:29.146Z,12.13
2018-10-11T20:59:32.364Z,13.03
2018-10-11T21:04:35.684Z,10.70
2018-10-11T21:09:38.908Z,12.67
2018-10-11T21:14:42.139Z,10.93
2018-10-11T21:19:45.373Z,14.60
2018-10-11T21:24:48.608Z,10.67
2018-10-11T21:29:51.844Z,11.50
2018-10-11T21:34:55.129Z,10.37
2018-10-11T21:39:58.358Z,12.07
2018-10-11T21:45:01.633Z,10.47
2018-10-11T21:50:04.904Z,10.80
2018-10-11T21:55:08.144Z,10.70
2018-10-11T22:00:11.393Z,10.40
2018-10-11T22:05:14.620Z,10.93
2018-10-11T22:10:18.000Z,12.00
2018-10-11T22:15:21.220Z,10.47
2018-10-11T22:20:24.454Z,11.60
2018-10-11T22:25:29.585Z,9.17
2018-10-11T22:30:32.812Z,10.97
2018-10-11T22:35:36.036Z,11.17
2018-10-11T22:40:39.267Z,11.60
2018-10-11T22:45:42.509Z,10.63
2018-10-11T22:50:45.736Z,10.77
2018-10-11T22:55:49.356Z,10.60
2018-10-11T23:00:52.612Z,10.83
2018-10-11T23:05:55.843Z,10.67
2018-10-11T23:10:59.096Z,12.50
2018-10-11T23:16:02.449Z,10.17
2018-10-11T23:21:05.680Z,11.03
2018-10-11T23:26:08.957Z,11.50
2018-10-11T23:31:12.537Z,11.00
2018-10-11T23:36:15.756Z,12.23
2018-10-11T23:41:19.477Z,9.93
2018-10-11T23:46:22.741Z,10.73
2018-10-11T23:51:25.985Z,9.77
2018-10-11T23:56:29.196Z,11.77
